Time;durP1;ratioP1;P1;durP2;ratioP2;P2;SDS_P1;SDS_P2;PMS_P1;PMS_P2;Temp;Humidity;BMP_temperature;BMP_pressure;BME280_temperature;BME280_humidity;BME280_pressure;Samples;Min_cycle;Max_cycle;Signal;HPM_P1;HPM_P2
2022/02/28 00:01:13;;;;;;;20.35;9.80;;;1.90;99.90;;;;;;5039759;28;20029;-67
2022/02/28 00:03:39;;;;;;;17.48;11.32;;;1.90;99.90;;;;;;5039227;28;20079;-67
2022/02/28 00:06:05;;;;;;;17.48;9.55;;;1.90;99.90;;;;;;5039128;28;20017;-66
2022/02/28 00:08:30;;;;;;;18.95;10.25;;;1.90;99.90;;;;;;5038960;28;20152;-67
2022/02/28 00:10:56;;;;;;;20.25;9.73;;;1.80;99.90;;;;;;5039509;28;20512;-67
2022/02/28 00:13:21;;;;;;;19.00;10.27;;;1.80;99.90;;;;;;5039473;28;20025;-67
2022/02/28 00:15:47;;;;;;;17.63;9.70;;;1.90;99.90;;;;;;5038536;28;20021;-67
2022/02/28 00:18:12;;;;;;;19.35;10.57;;;1.80;99.90;;;;;;5039444;28;20080;-66
2022/02/28 00:20:38;;;;;;;23.33;12.07;;;1.80;99.90;;;;;;5039532;28;20090;-67
2022/02/28 00:23:04;;;;;;;20.80;12.50;;;1.70;99.90;;;;;;5038750;28;20063;-67
2022/02/28 00:25:29;;;;;;;20.45;11.15;;;1.70;99.90;;;;;;5038297;28;20051;-67
2022/02/28 00:27:55;;;;;;;24.67;10.60;;;1.70;99.90;;;;;;5038299;28;20033;-67
2022/02/28 00:30:21;;;;;;;17.70;10.80;;;1.70;99.90;;;;;;5039150;28;20024;-66
2022/02/28 00:32:46;;;;;;;18.52;9.82;;;1.70;99.90;;;;;;5038555;28;20041;-67
2022/02/28 00:35:12;;;;;;;21.77;11.60;;;1.70;99.90;;;;;;5038612;28;20079;-67
2022/02/28 00:37:37;;;;;;;20.00;11.45;;;1.70;99.90;;;;;;5038137;28;20033;-67
2022/02/28 00:40:04;;;;;;;19.10;11.07;;;1.70;99.90;;;;;;5039087;28;20120;-67
2022/02/28 00:42:29;;;;;;;19.77;10.95;;;1.70;99.90;;;;;;5038951;28;20490;-67
2022/02/28 00:44:55;;;;;;;18.50;10.68;;;1.60;99.90;;;;;;5038808;28;20031;-66
2022/02/28 00:47:21;;;;;;;21.45;11.45;;;1.70;99.90;;;;;;5038623;28;20182;-67
2022/02/28 00:49:46;;;;;;;17.30;10.27;;;1.70;99.90;;;;;;5039081;28;20027;-66
2022/02/28 00:52:12;;;;;;;23.40;12.50;;;1.70;99.90;;;;;;5038109;28;20036;-67
2022/02/28 00:54:37;;;;;;;23.45;11.43;;;1.70;99.90;;;;;;5038396;28;20056;-67
2022/02/28 00:57:04;;;;;;;19.38;11.15;;;1.70;99.90;;;;;;5039196;28;20030;-66
2022/02/28 00:59:29;;;;;;;18.65;11.40;;;1.80;99.90;;;;;;5038416;28;20106;-66
2022/02/28 01:01:55;;;;;;;17.92;11.35;;;1.80;99.90;;;;;;5043952;28;20075;-67
2022/02/28 01:04:21;;;;;;;18.48;11.90;;;1.80;99.90;;;;;;5045186;28;20025;-67
2022/02/28 01:06:47;;;;;;;24.42;12.18;;;1.80;99.90;;;;;;5044495;28;20021;-67
2022/02/28 01:09:12;;;;;;;20.70;11.00;;;1.70;99.90;;;;;;5044919;28;20032;-66
2022/02/28 01:11:38;;;;;;;23.13;11.93;;;1.70;99.90;;;;;;5043814;28;20067;-66
2022/02/28 01:14:04;;;;;;;21.35;9.63;;;1.70;99.90;;;;;;5045373;28;20021;-67
2022/02/28 01:16:30;;;;;;;21.02;12.65;;;1.70;99.90;;;;;;5044124;28;20055;-66
2022/02/28 01:18:55;;;;;;;;;;;1.70;99.90;;;;;;5045305;28;20029;-67
2022/02/28 01:21:21;;;;;;;21.60;11.80;;;1.70;99.90;;;;;;5042548;28;19915;-66
2022/02/28 01:23:47;;;;;;;23.52;11.07;;;1.80;99.90;;;;;;5044492;28;20041;-67
2022/02/28 01:26:12;;;;;;;20.95;12.88;;;1.80;99.90;;;;;;5045484;28;20022;-66
2022/02/28 01:28:38;;;;;;;19.52;12.43;;;1.80;99.90;;;;;;5043868;28;20035;-66
2022/02/28 01:31:04;;;;;;;22.48;13.55;;;1.80;99.90;;;;;;5044785;28;20025;-67
2022/02/28 01:33:30;;;;;;;20.50;11.50;;;1.80;99.90;;;;;;5045010;28;20117;-67
2022/02/28 01:35:56;;;;;;;23.92;11.60;;;1.70;99.90;;;;;;5045624;28;20048;-66
2022/02/28 01:38:22;;;;;;;19.83;11.20;;;1.70;99.90;;;;;;5045726;28;20033;-66
2022/02/28 01:40:47;;;;;;;22.92;12.98;;;1.70;99.90;;;;;;5045462;28;21087;-67
2022/02/28 01:43:13;;;;;;;23.55;11.50;;;1.70;99.90;;;;;;5044337;28;20024;-66
2022/02/28 01:45:39;;;;;;;20.85;12.35;;;1.70;99.90;;;;;;5044319;28;20038;-66
2022/02/28 01:48:05;;;;;;;21.75;12.52;;;1.70;99.90;;;;;;5045914;28;20020;-66
2022/02/28 01:50:31;;;;;;;20.83;12.32;;;1.60;99.90;;;;;;5045296;28;20041;-67
2022/02/28 01:52:56;;;;;;;21.55;12.50;;;1.70;99.90;;;;;;5045012;28;20451;-66
2022/02/28 01:55:24;;;;;;;23.98;12.48;;;1.60;99.90;;;;;;5045276;28;20072;-66
2022/02/28 01:57:50;;;;;;;22.77;11.50;;;1.60;99.90;;;;;;5046051;28;20035;-66
2022/02/28 02:00:17;;;;;;;;;;;1.60;99.90;;;;;;5044817;28;20028;-66
2022/02/28 02:02:43;;;;;;;22.92;10.57;;;1.60;99.90;;;;;;5042790;28;20288;-67
2022/02/28 02:05:09;;;;;;;;;;;1.60;99.90;;;;;;5044520;28;20755;-67
2022/02/28 02:07:35;;;;;;;22.52;13.25;;;1.50;99.90;;;;;;5043382;28;19958;-67
2022/02/28 02:10:02;;;;;;;;;;;1.50;99.90;;;;;;5049829;28;20052;-66
2022/02/28 02:12:28;;;;;;;25.20;13.02;;;1.50;99.90;;;;;;5042187;28;19967;-66
2022/02/28 02:14:55;;;;;;;24.60;11.73;;;1.40;99.90;;;;;;5041474;28;20033;-66
2022/02/28 02:17:21;;;;;;;21.15;11.98;;;1.40;99.90;;;;;;5041763;28;20072;-66
2022/02/28 02:19:46;;;;;;;24.55;13.13;;;1.30;99.90;;;;;;5040696;28;20036;-66
2022/02/28 02:22:15;;;;;;;25.10;14.13;;;1.30;99.90;;;;;;5041732;28;20113;-67
2022/02/28 02:24:41;;;;;;;20.67;11.43;;;1.30;99.90;;;;;;5041162;28;20428;-66
2022/02/28 02:27:06;;;;;;;19.15;11.80;;;1.30;99.90;;;;;;5041191;28;20024;-66
2022/02/28 02:29:36;;;;;;;21.10;12.90;;;1.30;99.90;;;;;;5041948;28;20052;-66
2022/02/28 02:32:17;;;;;;;19.40;11.98;;;1.30;99.90;;;;;;5040781;28;20473;-66
2022/02/28 02:34:43;;;;;;;22.08;13.00;;;1.30;99.90;;;;;;5040524;28;20128;-66
2022/02/28 02:37:08;;;;;;;;;;;1.20;99.90;;;;;;5040520;28;20477;-66
2022/02/28 02:39:39;;;;;;;23.73;12.25;;;1.20;99.90;;;;;;5041062;28;19924;-67
2022/02/28 02:42:04;;;;;;;20.52;11.82;;;1.20;99.90;;;;;;5040839;28;20021;-67
2022/02/28 02:44:32;;;;;;;17.75;11.77;;;1.20;99.90;;;;;;5040662;28;20044;-66
2022/02/28 02:46:58;;;;;;;22.02;12.77;;;1.20;99.90;;;;;;5041448;28;20025;-66
2022/02/28 02:49:23;;;;;;;21.33;12.77;;;1.20;99.90;;;;;;5040530;28;20021;-67
2022/02/28 02:51:49;;;;;;;23.20;13.43;;;1.20;99.90;;;;;;5041852;28;20047;-67
2022/02/28 02:54:14;;;;;;;21.23;13.23;;;1.20;99.90;;;;;;5040772;28;20036;-67
2022/02/28 02:56:40;;;;;;;28.33;13.23;;;1.20;99.90;;;;;;5040161;28;20037;-66
2022/02/28 02:59:06;;;;;;;25.95;14.57;;;1.20;99.90;;;;;;5040350;28;20025;-66
2022/02/28 03:01:32;;;;;;;19.98;12.45;;;1.10;99.90;;;;;;5040077;28;20060;-66
2022/02/28 03:03:58;;;;;;;;;;;1.10;99.90;;;;;;5041370;28;20030;-66
2022/02/28 03:06:25;;;;;;;22.75;12.20;;;1.10;99.90;;;;;;5040405;28;19955;-67
2022/02/28 03:08:50;;;;;;;22.83;12.10;;;1.20;99.90;;;;;;5040182;28;20021;-67
2022/02/28 03:11:16;;;;;;;26.33;13.85;;;1.20;99.90;;;;;;5041204;28;20037;-66
2022/02/28 03:13:42;;;;;;;22.88;13.30;;;1.10;99.90;;;;;;5039436;28;20033;-66
2022/02/28 03:16:07;;;;;;;23.38;13.65;;;1.10;99.90;;;;;;5040737;28;20116;-66
2022/02/28 03:18:33;;;;;;;27.23;12.88;;;1.10;99.90;;;;;;5040115;28;20413;-66
2022/02/28 03:20:58;;;;;;;25.52;13.38;;;1.00;99.90;;;;;;5039670;28;20025;-66
2022/02/28 03:23:25;;;;;;;23.63;13.13;;;1.00;99.90;;;;;;5040159;28;20021;-67
2022/02/28 03:25:51;;;;;;;23.15;14.68;;;0.90;99.90;;;;;;5039342;28;20025;-67
2022/02/28 03:28:16;;;;;;;27.17;13.35;;;0.90;99.90;;;;;;5039931;28;20024;-67
2022/02/28 03:30:42;;;;;;;26.83;14.27;;;0.80;99.90;;;;;;5040043;28;20045;-67
2022/02/28 03:33:08;;;;;;;28.55;15.50;;;0.80;99.90;;;;;;5039635;28;20061;-66
2022/02/28 03:35:33;;;;;;;26.98;14.70;;;0.80;99.90;;;;;;5040129;28;20036;-67
2022/02/28 03:37:59;;;;;;;23.92;13.27;;;0.70;99.90;;;;;;5039132;28;20029;-67
2022/02/28 03:40:24;;;;;;;25.38;13.88;;;0.70;99.90;;;;;;5039778;28;20120;-67
2022/02/28 03:42:50;;;;;;;27.48;14.45;;;0.70;99.90;;;;;;5039665;28;20037;-66
2022/02/28 03:45:18;;;;;;;26.88;13.73;;;0.70;99.90;;;;;;5039150;28;20032;-66
2022/02/28 03:47:44;;;;;;;27.17;16.65;;;0.70;99.90;;;;;;5038568;28;20029;-66
2022/02/28 03:50:10;;;;;;;;;;;0.70;99.90;;;;;;5039797;28;20029;-66
2022/02/28 03:52:35;;;;;;;26.88;14.52;;;0.70;99.90;;;;;;5039165;28;20433;-67
2022/02/28 03:55:01;;;;;;;29.33;15.57;;;0.70;99.90;;;;;;5038883;28;20428;-66
2022/02/28 03:57:27;;;;;;;28.83;15.73;;;0.70;99.90;;;;;;5039220;28;20040;-66
2022/02/28 03:59:53;;;;;;;28.70;15.77;;;0.70;99.90;;;;;;5039085;28;20159;-67
2022/02/28 04:02:18;;;;;;;27.35;16.10;;;0.70;99.90;;;;;;5039503;28;20029;-66
2022/02/28 04:04:44;;;;;;;30.02;18.02;;;0.60;99.90;;;;;;5038599;28;20103;-66
2022/02/28 04:07:10;;;;;;;32.55;18.13;;;0.60;99.90;;;;;;5039247;28;20092;-66
2022/02/28 04:09:36;;;;;;;24.80;15.35;;;0.60;99.90;;;;;;5039049;28;20025;-66
2022/02/28 04:12:02;;;;;;;;;;;0.60;99.90;;;;;;5040055;28;20036;-66
2022/02/28 04:14:28;;;;;;;29.40;14.95;;;0.60;99.90;;;;;;5039207;28;19912;-66
2022/02/28 04:16:53;;;;;;;33.30;15.45;;;0.50;99.90;;;;;;5039411;28;20508;-66
2022/02/28 04:19:19;;;;;;;32.47;16.60;;;0.50;99.90;;;;;;5039310;28;20458;-67
2022/02/28 04:21:44;;;;;;;33.08;18.13;;;0.50;99.90;;;;;;5038865;28;20025;-67
2022/02/28 04:24:10;;;;;;;32.70;17.42;;;0.50;99.90;;;;;;5039121;28;20021;-66
2022/02/28 04:26:36;;;;;;;31.25;17.02;;;0.50;99.90;;;;;;5038534;28;20039;-66
2022/02/28 04:29:02;;;;;;;32.08;18.20;;;0.50;99.90;;;;;;5039169;28;20056;-67
2022/02/28 04:31:28;;;;;;;37.35;18.25;;;0.50;99.90;;;;;;5038837;28;20974;-66
2022/02/28 04:33:53;;;;;;;31.88;18.98;;;0.50;99.90;;;;;;5039028;28;20025;-66
2022/02/28 04:36:19;;;;;;;35.92;18.90;;;0.40;99.90;;;;;;5038661;28;20025;-66
2022/02/28 04:38:45;;;;;;;35.20;18.92;;;0.40;99.90;;;;;;5037590;28;20033;-66
2022/02/28 04:41:10;;;;;;;34.90;18.40;;;0.40;99.90;;;;;;5039148;28;20525;-66
2022/02/28 04:43:36;;;;;;;38.10;21.67;;;0.40;99.90;;;;;;5038329;28;20371;-66
2022/02/28 04:46:01;;;;;;;37.55;19.92;;;0.40;99.90;;;;;;5038270;28;20131;-66
2022/02/28 04:48:27;;;;;;;41.53;20.40;;;0.40;99.90;;;;;;5039127;28;20025;-66
2022/02/28 04:50:55;;;;;;;40.40;20.60;;;0.30;99.90;;;;;;5038210;28;20048;-66
2022/02/28 04:53:24;;;;;;;35.08;19.75;;;0.30;99.90;;;;;;5039412;28;20157;-66
2022/02/28 04:55:51;;;;;;;39.83;21.52;;;0.30;99.90;;;;;;5038538;28;20102;-66
2022/02/28 04:58:18;;;;;;;42.63;20.25;;;0.30;99.90;;;;;;5038422;28;20029;-66
2022/02/28 05:00:44;;;;;;;36.45;21.77;;;0.30;99.90;;;;;;5039251;28;20095;-67
2022/02/28 05:03:09;;;;;;;37.63;20.15;;;0.20;99.90;;;;;;5038843;28;20412;-66
2022/02/28 05:05:35;;;;;;;38.15;20.52;;;0.20;99.90;;;;;;5039093;28;20024;-67
2022/02/28 05:08:01;;;;;;;34.97;19.70;;;0.20;99.90;;;;;;5038770;28;20021;-67
2022/02/28 05:10:26;;;;;;;49.25;20.70;;;0.20;99.90;;;;;;5038522;28;20045;-66
2022/02/28 05:12:52;;;;;;;36.50;21.92;;;0.20;99.90;;;;;;5038227;28;20045;-67
2022/02/28 05:15:18;;;;;;;35.08;19.92;;;0.20;99.90;;;;;;5037455;28;20071;-66
2022/02/28 05:17:43;;;;;;;45.53;22.85;;;0.00;99.90;;;;;;5038944;28;20113;-66
2022/02/28 05:20:09;;;;;;;43.30;21.52;;;-0.10;99.90;;;;;;5038581;28;20331;-66
2022/02/28 05:22:35;;;;;;;47.80;25.83;;;-0.20;99.90;;;;;;5037236;28;20021;-67
2022/02/28 05:25:01;;;;;;;45.72;23.67;;;-0.20;99.90;;;;;;5037865;28;20075;-66
2022/02/28 05:27:26;;;;;;;42.42;22.15;;;-0.20;99.90;;;;;;5036428;28;20650;-66
2022/02/28 05:29:52;;;;;;;44.40;21.63;;;-0.20;99.90;;;;;;5037719;28;20029;-67
2022/02/28 05:32:17;;;;;;;40.53;21.70;;;-0.30;99.90;;;;;;5038459;28;20170;-67
2022/02/28 05:34:43;;;;;;;46.92;22.05;;;-0.30;99.90;;;;;;5037668;28;20094;-68
2022/02/28 05:37:08;;;;;;;34.10;18.75;;;-0.30;99.90;;;;;;5036793;28;20029;-67
2022/02/28 05:39:34;;;;;;;37.88;19.50;;;-0.30;99.90;;;;;;5038445;28;20182;-67
2022/02/28 05:41:59;;;;;;;33.42;18.95;;;-0.30;99.90;;;;;;5039001;28;20033;-67
2022/02/28 05:44:25;;;;;;;38.15;20.52;;;-0.30;99.90;;;;;;5036633;28;20583;-67
2022/02/28 05:46:50;;;;;;;39.72;19.58;;;-0.30;99.90;;;;;;5038323;28;20056;-66
2022/02/28 05:49:16;;;;;;;;;;;-0.30;99.90;;;;;;5041869;28;20075;-67
2022/02/28 05:51:41;;;;;;;35.22;17.83;;;-0.30;99.90;;;;;;5041087;28;19912;-67
2022/02/28 05:54:07;;;;;;;34.08;18.85;;;-0.40;99.90;;;;;;5042013;28;20043;-67
2022/02/28 05:56:33;;;;;;;33.05;17.85;;;-0.40;99.90;;;;;;5042644;28;20036;-67
2022/02/28 05:58:59;;;;;;;38.60;20.15;;;-0.40;99.90;;;;;;5041866;28;20026;-67
2022/02/28 06:01:25;;;;;;;40.63;19.98;;;-0.40;99.90;;;;;;5042440;28;20029;-67
2022/02/28 06:03:51;;;;;;;52.17;27.30;;;-0.40;99.90;;;;;;5041434;28;20029;-66
2022/02/28 06:06:16;;;;;;;49.97;24.08;;;-0.30;99.90;;;;;;5041616;28;20032;-66
2022/02/28 06:08:42;;;;;;;53.65;24.88;;;-0.30;99.90;;;;;;5040918;28;20512;-67
2022/02/28 06:11:08;;;;;;;44.53;23.17;;;-0.30;99.90;;;;;;5041396;28;20052;-68
2022/02/28 06:13:34;;;;;;;50.95;25.17;;;-0.30;99.90;;;;;;5040030;28;20056;-68
2022/02/28 06:16:01;;;;;;;43.20;20.17;;;-0.20;99.90;;;;;;5040057;28;20144;-70
2022/02/28 06:18:26;;;;;;;51.15;23.83;;;-0.20;99.90;;;;;;5040897;28;20062;-71
2022/02/28 06:20:52;;;;;;;43.50;23.60;;;-0.20;99.90;;;;;;5040988;28;20033;-75
2022/02/28 06:23:17;;;;;;;44.40;22.13;;;-0.10;99.90;;;;;;5040766;28;20078;-75
2022/02/28 06:25:45;;;;;;;47.47;22.58;;;-0.10;99.90;;;;;;5039318;28;20025;-75
2022/02/28 06:28:11;;;;;;;44.72;21.58;;;-0.10;99.90;;;;;;5038951;28;20022;-75
2022/02/28 06:30:37;;;;;;;46.92;21.27;;;-0.20;99.90;;;;;;5039549;28;20390;-75
2022/02/28 06:33:04;;;;;;;42.50;19.90;;;-0.20;99.90;;;;;;5038315;28;20529;-75
2022/02/28 06:35:29;;;;;;;45.30;21.38;;;-0.30;99.90;;;;;;5039014;28;20068;-75
2022/02/28 06:37:55;;;;;;;50.35;23.02;;;-0.20;99.90;;;;;;5038991;28;20496;-75
2022/02/28 06:40:21;;;;;;;47.05;22.17;;;-0.30;99.90;;;;;;5040110;28;20025;-75
2022/02/28 06:42:46;;;;;;;54.90;24.05;;;-0.30;99.90;;;;;;5040759;28;20021;-75
2022/02/28 06:45:12;;;;;;;48.88;22.63;;;-0.20;99.90;;;;;;5041339;28;20025;-75
2022/02/28 06:47:38;;;;;;;49.78;26.10;;;-0.20;99.90;;;;;;5041090;28;20025;-76
2022/02/28 06:50:04;;;;;;;57.47;27.30;;;-0.20;99.90;;;;;;5041562;28;20032;-75
2022/02/28 06:52:30;;;;;;;61.17;25.40;;;-0.20;99.90;;;;;;5040168;28;20029;-75
2022/02/28 06:54:56;;;;;;;52.35;25.08;;;-0.20;99.90;;;;;;5041373;28;20033;-75
2022/02/28 06:57:22;;;;;;;;;;;-0.30;99.90;;;;;;5041755;28;20025;-75
2022/02/28 06:59:47;;;;;;;53.20;25.38;;;-0.30;99.90;;;;;;5040956;28;20292;-75
2022/02/28 07:02:13;;;;;;;64.45;26.40;;;-0.40;99.90;;;;;;5040747;28;20021;-76
2022/02/28 07:04:38;;;;;;;55.15;26.05;;;-0.40;99.90;;;;;;5039554;28;20559;-73
2022/02/28 07:07:04;;;;;;;62.15;23.95;;;-0.30;99.90;;;;;;5040466;28;20031;-73
2022/02/28 07:09:30;;;;;;;;;;;-0.30;99.90;;;;;;5040510;28;20033;-71
2022/02/28 07:11:56;;;;;;;51.28;24.67;;;-0.20;99.90;;;;;;5038938;28;19913;-71
2022/02/28 07:14:21;;;;;;;60.03;24.30;;;-0.20;99.90;;;;;;5039855;28;20067;-70
2022/02/28 07:16:47;;;;;;;;;;;-0.20;99.90;;;;;;5040271;28;20040;-70
2022/02/28 07:19:13;;;;;;;54.40;27.17;;;-0.20;99.90;;;;;;5040735;28;20004;-70
2022/02/28 07:21:39;;;;;;;;;;;-0.20;99.90;;;;;;5040136;28;20021;-73
2022/02/28 07:24:05;;;;;;;50.28;23.67;;;-0.20;99.90;;;;;;5038996;28;19909;-69
2022/02/28 07:26:31;;;;;;;58.60;24.17;;;-0.20;99.90;;;;;;5040341;28;20027;-68
2022/02/28 07:28:57;;;;;;;50.28;23.25;;;-0.20;99.90;;;;;;5041349;28;20067;-68
2022/02/28 07:31:23;;;;;;;50.80;22.15;;;-0.20;99.90;;;;;;5039700;28;20075;-69
2022/02/28 07:33:48;;;;;;;49.88;23.05;;;-0.20;99.90;;;;;;5039687;28;20419;-69
2022/02/28 07:36:14;;;;;;;50.30;21.02;;;-0.20;99.90;;;;;;5041318;28;20025;-68
2022/02/28 07:38:41;;;;;;;47.03;18.85;;;-0.20;99.90;;;;;;5039578;28;20044;-68
2022/02/28 07:41:07;;;;;;;56.97;21.90;;;-0.30;99.90;;;;;;5039195;28;20029;-68
2022/02/28 07:43:33;;;;;;;55.58;26.25;;;-0.30;99.90;;;;;;5039942;28;20473;-68
2022/02/28 07:45:58;;;;;;;63.53;26.63;;;-0.30;99.90;;;;;;5039280;28;20026;-68
2022/02/28 07:48:24;;;;;;;53.28;23.30;;;-0.30;99.90;;;;;;5039338;28;20636;-68
2022/02/28 07:50:49;;;;;;;57.70;26.77;;;-0.20;99.90;;;;;;5038781;28;20055;-68
2022/02/28 07:53:15;;;;;;;61.97;27.98;;;-0.20;99.90;;;;;;5038838;28;20052;-68
2022/02/28 07:55:41;;;;;;;70.28;27.60;;;-0.20;99.90;;;;;;5038695;28;20083;-73
2022/02/28 07:58:06;;;;;;;64.07;25.90;;;-0.10;99.90;;;;;;5040252;28;20040;-71
2022/02/28 08:00:32;;;;;;;56.38;25.23;;;-0.10;99.90;;;;;;5039063;28;20026;-71
2022/02/28 08:02:58;;;;;;;58.65;28.27;;;-0.10;99.90;;;;;;5039177;28;20025;-71
2022/02/28 08:05:24;;;;;;;60.13;27.38;;;0.00;99.90;;;;;;5038597;28;20033;-71
2022/02/28 08:07:49;;;;;;;55.03;25.67;;;0.10;99.90;;;;;;5039107;28;20099;-72
2022/02/28 08:10:15;;;;;;;50.78;22.98;;;0.30;99.90;;;;;;5038231;28;20029;-71
2022/02/28 08:12:40;;;;;;;45.13;23.08;;;0.40;99.90;;;;;;5038734;28;20063;-69
2022/02/28 08:15:06;;;;;;;46.47;20.77;;;0.40;99.90;;;;;;5039368;28;20025;-70
2022/02/28 08:17:32;;;;;;;46.78;23.05;;;0.40;99.90;;;;;;5039449;28;20063;-70
2022/02/28 08:19:58;;;;;;;50.03;21.92;;;0.30;99.90;;;;;;5039209;28;20029;-70
2022/02/28 08:22:23;;;;;;;55.80;21.77;;;0.20;99.90;;;;;;5038963;28;20040;-68
2022/02/28 08:24:49;;;;;;;49.03;21.50;;;0.10;99.90;;;;;;5039448;28;20025;-71
2022/02/28 08:27:14;;;;;;;53.08;22.60;;;0.10;99.90;;;;;;5039534;28;20167;-73
2022/02/28 08:29:40;;;;;;;50.80;22.27;;;0.20;99.90;;;;;;5037608;28;20030;-70
2022/02/28 08:32:06;;;;;;;44.63;22.27;;;0.20;99.90;;;;;;5038890;28;20260;-70
2022/02/28 08:34:31;;;;;;;54.55;23.15;;;0.30;99.90;;;;;;5038468;28;20068;-70
2022/02/28 08:36:57;;;;;;;55.20;27.02;;;0.40;99.90;;;;;;5038014;28;20072;-70
2022/02/28 08:39:22;;;;;;;52.63;22.58;;;0.40;99.90;;;;;;5038588;28;20470;-70
2022/02/28 08:41:48;;;;;;;54.15;22.08;;;0.40;99.90;;;;;;5038738;28;20485;-69
2022/02/28 08:44:13;;;;;;;55.13;24.55;;;0.40;99.90;;;;;;5039826;28;20090;-71
2022/02/28 08:46:39;;;;;;;64.30;24.05;;;0.50;99.90;;;;;;5038657;28;20514;-71
2022/02/28 08:49:05;;;;;;;58.45;25.67;;;0.40;99.90;;;;;;5038366;28;20116;-71
2022/02/28 08:51:31;;;;;;;55.10;25.08;;;0.50;99.90;;;;;;5038722;28;20125;-72
2022/02/28 08:53:57;;;;;;;52.88;21.67;;;0.50;99.90;;;;;;5038168;28;20139;-69
2022/02/28 08:56:22;;;;;;;51.83;25.25;;;0.60;99.90;;;;;;5038694;28;20036;-72
2022/02/28 08:58:48;;;;;;;57.90;26.20;;;0.50;99.90;;;;;;5038831;28;20512;-72
2022/02/28 09:01:13;;;;;;;51.25;23.42;;;0.50;99.90;;;;;;5038600;28;20040;-71
2022/02/28 09:03:39;;;;;;;54.67;26.98;;;0.50;99.90;;;;;;5038413;28;20037;-71
2022/02/28 09:06:04;;;;;;;60.20;26.80;;;0.50;99.90;;;;;;5038629;28;20053;-70
2022/02/28 09:08:30;;;;;;;55.78;23.58;;;0.50;99.90;;;;;;5038035;28;20491;-71
2022/02/28 09:10:56;;;;;;;55.67;26.20;;;0.60;99.90;;;;;;5038682;28;20572;-71
2022/02/28 09:13:22;;;;;;;57.85;26.42;;;0.70;99.90;;;;;;5038313;28;21621;-71
2022/02/28 09:15:47;;;;;;;54.83;25.73;;;0.70;99.90;;;;;;5038448;28;20128;-71
2022/02/28 09:18:13;;;;;;;48.13;22.23;;;0.60;99.90;;;;;;5038051;28;20025;-71
2022/02/28 09:20:39;;;;;;;57.42;23.20;;;0.50;99.90;;;;;;5039389;28;20035;-70
2022/02/28 09:23:06;;;;;;;56.85;25.33;;;0.50;99.90;;;;;;5042231;28;20032;-72
2022/02/28 09:25:31;;;;;;;54.03;23.50;;;0.50;99.90;;;;;;5042648;28;20021;-72
2022/02/28 09:27:57;;;;;;;52.35;22.23;;;0.60;99.90;;;;;;5042597;28;20112;-72
2022/02/28 09:30:23;;;;;;;53.75;23.33;;;0.70;99.90;;;;;;5041732;28;20179;-69
2022/02/28 09:32:50;;;;;;;47.08;20.75;;;0.80;99.90;;;;;;5042634;28;20029;-70
2022/02/28 09:35:15;;;;;;;47.25;23.17;;;0.90;99.90;;;;;;5042015;28;20048;-69
2022/02/28 09:37:41;;;;;;;46.85;23.45;;;1.00;99.90;;;;;;5041676;28;20025;-70
2022/02/28 09:40:07;;;;;;;45.55;20.85;;;1.00;99.90;;;;;;5043289;28;20090;-72
2022/02/28 09:42:33;;;;;;;;;;;1.10;99.90;;;;;;5042675;28;20082;-74
2022/02/28 09:44:59;;;;;;;46.65;23.60;;;1.10;99.90;;;;;;5041538;28;20369;-74
2022/02/28 09:47:27;;;;;;;49.60;24.27;;;1.10;99.90;;;;;;5042068;28;20565;-74
2022/02/28 09:49:52;;;;;;;46.55;21.38;;;1.20;99.90;;;;;;5041868;28;20103;-70
2022/02/28 09:52:18;;;;;;;47.42;22.02;;;1.30;99.90;;;;;;5041809;28;20068;-72
2022/02/28 09:54:44;;;;;;;49.67;23.40;;;1.40;99.90;;;;;;5041555;28;20557;-73
2022/02/28 09:57:11;;;;;;;54.95;24.20;;;1.40;99.90;;;;;;5042568;28;20037;-73
2022/02/28 09:59:37;;;;;;;48.20;23.98;;;1.50;99.90;;;;;;5041830;28;20124;-72
2022/02/28 10:02:04;;;;;;;42.00;21.65;;;1.60;99.90;;;;;;5041484;28;20115;-73
2022/02/28 10:04:29;;;;;;;49.50;22.88;;;1.70;99.90;;;;;;5040622;28;20033;-72
2022/02/28 10:06:55;;;;;;;57.22;22.75;;;1.70;99.90;;;;;;5041951;28;20564;-72
2022/02/28 10:09:21;;;;;;;;;;;1.70;99.90;;;;;;5040361;28;20043;-74
2022/02/28 10:11:53;;;;;;;46.47;21.63;;;1.70;99.90;;;;;;5042391;28;20292;-74
2022/02/28 10:14:19;;;;;;;59.15;25.88;;;1.80;99.90;;;;;;5041635;28;20108;-71
2022/02/28 10:16:49;;;;;;;53.33;24.15;;;1.80;99.90;;;;;;5041035;28;20029;-72
2022/02/28 10:19:20;;;;;;;46.88;21.55;;;1.90;99.90;;;;;;5041584;28;20417;-74
2022/02/28 10:21:51;;;;;;;48.33;24.40;;;1.70;99.90;;;;;;5041529;28;20553;-76
2022/02/28 10:24:28;;;;;;;50.88;23.55;;;1.70;99.90;;;;;;5040818;28;20150;-74
2022/02/28 10:26:57;;;;;;;45.70;21.63;;;1.80;99.90;;;;;;5041100;28;20029;-69
2022/02/28 10:29:25;;;;;;;50.30;23.38;;;1.80;99.90;;;;;;5040932;28;20387;-70
2022/02/28 10:31:51;;;;;;;47.35;23.50;;;1.90;99.90;;;;;;5040849;28;20429;-71
2022/02/28 10:34:21;;;;;;;46.88;24.25;;;2.00;99.90;;;;;;5040313;28;20043;-71
2022/02/28 10:36:48;;;;;;;53.38;24.63;;;2.00;99.90;;;;;;5041238;28;20396;-70
2022/02/28 10:39:21;;;;;;;54.25;25.23;;;2.10;99.90;;;;;;5040857;28;20040;-70
2022/02/28 10:41:46;;;;;;;53.42;26.42;;;2.40;99.90;;;;;;5040495;28;20122;-70
2022/02/28 10:44:13;;;;;;;52.80;23.98;;;2.50;99.90;;;;;;5041163;28;20059;-72
2022/02/28 10:46:42;;;;;;;52.20;24.35;;;2.50;99.90;;;;;;5040805;28;20742;-72
2022/02/28 10:49:20;;;;;;;47.38;21.35;;;2.50;99.90;;;;;;5041912;28;20040;-70
2022/02/28 10:51:57;;;;;;;45.45;23.92;;;2.60;99.90;;;;;;5040926;28;20516;-71
2022/02/28 10:54:28;;;;;;;51.40;25.05;;;2.60;99.90;;;;;;5039906;28;20033;-71
2022/02/28 10:57:06;;;;;;;47.97;23.20;;;2.60;99.90;;;;;;5041316;28;20025;-72
2022/02/28 10:59:40;;;;;;;46.28;25.00;;;2.70;99.90;;;;;;5040842;28;20079;-70
2022/02/28 11:02:06;;;;;;;48.33;22.88;;;2.80;99.90;;;;;;5040966;28;20422;-70
2022/02/28 11:04:38;;;;;;;50.70;26.67;;;2.80;99.90;;;;;;5039920;28;20029;-72
2022/02/28 11:07:05;;;;;;;46.05;23.33;;;2.80;99.90;;;;;;5040893;28;20464;-70
2022/02/28 11:09:50;;;;;;;47.55;22.10;;;2.90;99.90;;;;;;5039715;28;20129;-71
2022/02/28 11:12:27;;;;;;;48.60;23.75;;;3.00;99.90;;;;;;5039528;28;20116;-74
2022/02/28 11:14:59;;;;;;;41.95;21.92;;;3.10;99.90;;;;;;5040713;28;20034;-74
2022/02/28 11:17:28;;;;;;;47.15;22.25;;;3.00;99.90;;;;;;5039980;28;20060;-74
2022/02/28 11:19:55;;;;;;;42.67;21.17;;;3.00;99.90;;;;;;5040045;28;20551;-74
2022/02/28 11:22:21;;;;;;;43.58;21.63;;;3.00;99.90;;;;;;5039917;28;20374;-74
2022/02/28 11:24:47;;;;;;;43.70;20.70;;;3.00;99.90;;;;;;5040467;28;20032;-74
2022/02/28 11:27:16;;;;;;;50.95;25.23;;;3.00;99.90;;;;;;5040429;28;20031;-74
2022/02/28 11:29:43;;;;;;;42.67;20.60;;;2.90;99.90;;;;;;5040345;28;20036;-74
2022/02/28 11:32:10;;;;;;;47.83;23.05;;;2.90;99.90;;;;;;5039979;28;20071;-75
2022/02/28 11:34:35;;;;;;;43.03;20.67;;;2.90;99.90;;;;;;5039924;28;20029;-73
2022/02/28 11:37:04;;;;;;;52.13;23.27;;;2.80;99.90;;;;;;5038451;28;20029;-73
2022/02/28 11:39:32;;;;;;;52.75;23.33;;;2.90;99.90;;;;;;5039887;28;20406;-73
2022/02/28 11:41:58;;;;;;;45.75;25.00;;;3.00;99.90;;;;;;5040508;28;20021;-73
2022/02/28 11:44:24;;;;;;;47.25;22.15;;;3.10;99.90;;;;;;5040138;28;20032;-73
2022/02/28 11:46:59;;;;;;;39.63;21.25;;;3.10;99.90;;;;;;5040096;28;20025;-71
2022/02/28 11:49:25;;;;;;;43.25;20.38;;;3.20;99.90;;;;;;5039447;28;20352;-70
2022/02/28 11:51:51;;;;;;;55.08;29.08;;;3.30;99.90;;;;;;5039781;28;20033;-69
2022/02/28 11:54:16;;;;;;;46.50;24.52;;;3.10;99.90;;;;;;5039297;28;20516;-69
2022/02/28 11:56:47;;;;;;;42.20;21.77;;;3.20;99.90;;;;;;5039827;28;20042;-70
2022/02/28 11:59:19;;;;;;;43.58;23.42;;;3.30;99.90;;;;;;5038240;28;20045;-70
2022/02/28 12:01:47;;;;;;;49.33;22.52;;;3.40;99.90;;;;;;5038912;28;20026;-72
2022/02/28 12:04:19;;;;;;;47.03;22.60;;;3.60;99.90;;;;;;5040052;28;20021;-70
2022/02/28 12:06:55;;;;;;;42.50;21.05;;;3.80;99.90;;;;;;5039346;28;20025;-69
2022/02/28 12:09:38;;;;;;;47.37;21.37;;;3.90;99.90;;;;;;5039002;28;20075;-71
2022/02/28 12:12:12;;;;;;;47.22;24.10;;;3.90;99.90;;;;;;5039023;28;20028;-70
2022/02/28 12:15:03;;;;;;;52.83;27.50;;;4.00;99.90;;;;;;5038642;28;20041;-71
2022/02/28 12:17:42;;;;;;;48.55;22.13;;;3.90;99.90;;;;;;5038564;28;20124;-70
2022/02/28 12:20:19;;;;;;;46.20;23.90;;;3.80;99.90;;;;;;5039638;28;20040;-70
2022/02/28 12:22:58;;;;;;;44.45;22.70;;;3.80;99.90;;;;;;5039373;28;20029;-68
2022/02/28 12:25:29;;;;;;;46.40;24.35;;;3.80;99.90;;;;;;5039005;28;20033;-68
2022/02/28 12:27:55;;;;;;;49.60;25.42;;;3.80;99.90;;;;;;5038609;28;20087;-68
2022/02/28 12:30:45;;;;;;;50.70;24.95;;;3.90;99.90;;;;;;5039001;28;20021;-67
2022/02/28 12:33:12;;;;;;;46.10;22.83;;;3.90;99.90;;;;;;5038213;28;20116;-67
2022/02/28 12:35:39;;;;;;;51.00;25.63;;;4.00;99.90;;;;;;5037989;28;20382;-68
2022/02/28 12:38:06;;;;;;;55.55;26.55;;;4.10;99.90;;;;;;5037505;28;20025;-68